createdAt,value
2023-04-15T00:00:34.853Z,58.55
2023-04-15T00:03:38.638Z,57.77
2023-04-15T00:06:42.812Z,56.80
2023-04-15T00:09:47.100Z,56.26
2023-04-15T00:12:50.104Z,55.48
2023-04-15T00:15:53.577Z,55.04
2023-04-15T00:18:57.504Z,54.44
2023-04-15T00:22:01.783Z,54.20
2023-04-15T00:25:06.015Z,53.63
2023-04-15T00:28:10.004Z,52.57
2023-04-15T00:31:13.748Z,53.37
2023-04-15T00:34:17.640Z,50.58
2023-04-15T00:37:20.743Z,50.11
2023-04-15T00:40:25.620Z,50.65
2023-04-15T00:43:32.063Z,50.14
2023-04-15T00:46:38.840Z,49.86
2023-04-15T00:49:42.023Z,49.40
2023-04-15T00:52:45.677Z,48.90
2023-04-15T00:55:49.343Z,48.07
2023-04-15T00:58:53.259Z,46.22
2023-04-15T01:01:57.141Z,46.09
2023-04-15T01:05:01.551Z,45.83
2023-04-15T01:08:06.491Z,44.64
2023-04-15T01:11:13.684Z,43.74
2023-04-15T01:14:18.035Z,43.55
2023-04-15T01:17:22.155Z,43.62
2023-04-15T01:20:25.495Z,43.47
2023-04-15T01:23:29.999Z,42.67
2023-04-15T01:26:33.892Z,42.66
2023-04-15T01:29:39.725Z,42.16
2023-04-15T01:32:43.204Z,42.55
2023-04-15T01:35:48.271Z,42.68
2023-04-15T01:38:52.548Z,42.72
2023-04-15T01:41:59.389Z,43.17
2023-04-15T01:45:04.425Z,42.84
2023-04-15T01:48:08.246Z,43.02
2023-04-15T01:51:14.007Z,42.74
2023-04-15T01:54:18.292Z,42.32
2023-04-15T01:57:22.031Z,42.76
2023-04-15T02:00:28.471Z,42.45
2023-04-15T02:03:33.065Z,42.16
2023-04-15T02:06:37.481Z,42.17
2023-04-15T02:09:41.223Z,41.69
2023-04-15T02:12:45.489Z,41.45
2023-04-15T02:15:50.661Z,40.51
2023-04-15T02:18:55.714Z,40.48
2023-04-15T02:22:00.823Z,40.12
2023-04-15T02:25:04.246Z,39.12
2023-04-15T02:28:09.000Z,38.81
2023-04-15T02:31:13.135Z,38.52
2023-04-15T02:34:17.248Z,37.80
2023-04-15T02:37:21.556Z,37.34
2023-04-15T02:40:25.124Z,37.13
2023-04-15T02:43:28.631Z,36.39
2023-04-15T02:46:33.051Z,37.10
2023-04-15T02:49:36.528Z,36.86
2023-04-15T02:52:44.268Z,36.03
2023-04-15T02:55:47.533Z,35.71
2023-04-15T02:58:56.890Z,35.94
2023-04-15T03:02:01.763Z,35.55
2023-04-15T03:05:07.053Z,35.93
2023-04-15T03:08:10.556Z,35.24
2023-04-15T03:11:17.347Z,34.79
2023-04-15T03:14:21.991Z,34.76
2023-04-15T03:17:25.604Z,33.90
2023-04-15T03:20:29.259Z,32.90
2023-04-15T03:23:33.186Z,33.10
2023-04-15T03:26:38.254Z,32.46
2023-04-15T03:29:48.805Z,33.11
2023-04-15T03:32:53.861Z,30.30
2023-04-15T03:35:58.249Z,30.86
2023-04-15T03:39:03.194Z,30.32
2023-04-15T03:42:07.846Z,31.08
2023-04-15T03:45:12.106Z,31.68
2023-04-15T03:48:18.056Z,30.11
2023-04-15T03:51:22.342Z,30.17
2023-04-15T03:54:25.615Z,30.88
2023-04-15T03:57:29.452Z,29.44
2023-04-15T04:00:32.618Z,26.40
2023-04-15T04:03:37.977Z,26.95
2023-04-15T04:06:41.705Z,26.60
2023-04-15T04:09:47.287Z,25.69
2023-04-15T04:12:51.122Z,25.77
2023-04-15T04:15:54.825Z,25.22
2023-04-15T04:18:58.922Z,24.83
2023-04-15T04:22:03.309Z,24.47
2023-04-15T04:25:09.218Z,24.84
2023-04-15T04:28:13.754Z,23.18
2023-04-15T04:31:17.776Z,22.43
2023-04-15T04:34:21.863Z,20.97
2023-04-15T04:37:26.536Z,21.71
2023-04-15T04:40:30.032Z,23.83
2023-04-15T04:43:33.176Z,24.68
2023-04-15T04:46:37.409Z,24.51
2023-04-15T04:49:41.891Z,24.78
2023-04-15T04:52:45.996Z,25.12
2023-04-15T04:55:49.947Z,24.59
2023-04-15T04:58:53.858Z,24.30
2023-04-15T05:01:57.758Z,24.49
2023-04-15T05:05:02.745Z,24.79
2023-04-15T05:08:06.646Z,24.58
2023-04-15T05:11:09.999Z,24.47
2023-04-15T05:14:13.116Z,24.50
2023-04-15T05:17:17.029Z,23.19
2023-04-15T05:20:20.602Z,23.71
2023-04-15T05:23:24.410Z,23.67
2023-04-15T05:26:28.067Z,23.70
2023-04-15T05:29:31.916Z,23.76
2023-04-15T05:32:35.692Z,23.29
2023-04-15T05:35:39.600Z,23.46
2023-04-15T05:38:43.145Z,22.97
2023-04-15T05:41:47.806Z,22.57
2023-04-15T05:44:52.302Z,22.65
2023-04-15T05:47:56.853Z,22.46
2023-04-15T05:51:01.282Z,22.14
2023-04-15T05:54:04.915Z,21.73
2023-04-15T05:57:08.809Z,17.65
2023-04-15T06:00:14.120Z,18.32
2023-04-15T06:03:17.974Z,19.30
2023-04-15T06:06:22.253Z,19.74
2023-04-15T06:09:26.255Z,20.44
2023-04-15T06:12:30.528Z,19.68
2023-04-15T06:15:34.016Z,17.64
2023-04-15T06:18:37.565Z,15.81
2023-04-15T06:21:42.010Z,15.98
2023-04-15T06:24:46.525Z,15.84
2023-04-15T06:27:50.354Z,15.42
2023-04-15T06:30:54.826Z,15.30
2023-04-15T06:33:58.528Z,14.90
2023-04-15T06:37:03.004Z,14.99
2023-04-15T06:40:10.688Z,14.66
2023-04-15T06:43:14.690Z,14.97
2023-04-15T06:46:18.524Z,15.53
2023-04-15T06:49:23.059Z,14.52
2023-04-15T06:52:26.764Z,14.19
2023-04-15T06:55:32.178Z,14.32
2023-04-15T06:58:38.632Z,14.14
2023-04-15T07:01:43.038Z,13.76
2023-04-15T07:04:46.498Z,13.94
2023-04-15T07:07:51.196Z,13.61
2023-04-15T07:10:55.597Z,13.36
2023-04-15T07:13:59.932Z,13.04
2023-04-15T07:17:03.320Z,12.80
2023-04-15T07:20:07.348Z,12.16
2023-04-15T07:23:11.407Z,12.11
2023-04-15T07:26:14.803Z,11.67
2023-04-15T07:29:18.717Z,11.55
2023-04-15T07:32:22.661Z,11.41
2023-04-15T07:35:27.204Z,11.00
2023-04-15T07:38:30.930Z,10.70
2023-04-15T07:41:34.976Z,10.73
2023-04-15T07:44:38.137Z,10.14
2023-04-15T07:47:42.718Z,9.82
2023-04-15T07:50:47.006Z,9.96
2023-04-15T07:53:51.265Z,9.91
2023-04-15T07:56:55.653Z,9.60
2023-04-15T07:59:58.949Z,9.39
2023-04-15T08:03:02.804Z,9.53
2023-04-15T08:06:07.299Z,10.03
2023-04-15T08:09:10.565Z,9.21
2023-04-15T08:12:14.133Z,9.39
2023-04-15T08:15:18.673Z,9.17
2023-04-15T08:18:22.470Z,9.24
2023-04-15T08:21:26.870Z,9.28
2023-04-15T08:24:32.119Z,9.22
2023-04-15T08:27:35.426Z,8.98
2023-04-15T08:30:39.163Z,9.00
2023-04-15T08:33:43.449Z,8.98
2023-04-15T08:36:47.036Z,8.85
2023-04-15T08:39:51.178Z,8.70
2023-04-15T08:42:58.348Z,8.58
2023-04-15T08:46:03.506Z,8.44
2023-04-15T08:49:06.568Z,8.47
2023-04-15T08:52:11.597Z,8.45
2023-04-15T08:55:16.995Z,8.43
2023-04-15T08:58:21.583Z,8.63
2023-04-15T09:01:25.579Z,8.33
2023-04-15T09:04:30.085Z,8.20
2023-04-15T09:07:36.568Z,8.06
2023-04-15T09:10:41.228Z,8.07
2023-04-15T09:13:45.174Z,8.41
2023-04-15T09:17:11.703Z,8.10
2023-04-15T09:20:17.557Z,7.96
2023-04-15T09:23:21.235Z,7.76
2023-04-15T09:26:40.707Z,8.31
2023-04-15T09:29:44.928Z,8.48
2023-04-15T09:32:57.185Z,8.45
2023-04-15T09:36:06.025Z,8.78
2023-04-15T09:39:10.080Z,9.19
2023-04-15T09:42:14.050Z,9.30
2023-04-15T09:45:17.401Z,9.07
2023-04-15T09:48:24.545Z,8.88
2023-04-15T09:51:36.578Z,8.86
2023-04-15T09:54:40.810Z,8.98
2023-04-15T09:57:48.236Z,9.20
2023-04-15T10:00:54.226Z,9.01
2023-04-15T10:04:04.773Z,8.82
2023-04-15T10:07:11.098Z,8.99
2023-04-15T10:10:16.113Z,8.85
2023-04-15T10:13:23.188Z,9.09
2023-04-15T10:16:32.095Z,9.13
2023-04-15T10:19:39.103Z,9.51
2023-04-15T10:22:42.982Z,9.77
2023-04-15T10:25:48.290Z,10.38
2023-04-15T10:28:52.914Z,10.66
2023-04-15T10:32:01.028Z,11.58
2023-04-15T10:35:06.657Z,12.25
2023-04-15T10:38:35.834Z,13.21
2023-04-15T10:41:39.503Z,14.06
2023-04-15T10:44:44.961Z,14.52
2023-04-15T10:47:55.056Z,15.07
2023-04-15T10:51:01.791Z,15.68
2023-04-15T10:54:29.709Z,16.01
2023-04-15T10:57:39.560Z,16.53
2023-04-15T11:00:52.876Z,17.18
2023-04-15T11:03:57.359Z,17.64
2023-04-15T11:07:09.337Z,18.10
2023-04-15T11:10:18.752Z,18.68
2023-04-15T11:13:25.999Z,19.07
2023-04-15T11:16:30.129Z,19.58
2023-04-15T11:19:40.045Z,20.07
2023-04-15T11:23:14.208Z,20.38
2023-04-15T11:26:18.249Z,20.75
2023-04-15T11:29:22.361Z,21.16
2023-04-15T11:32:25.514Z,21.07
2023-04-15T11:35:30.068Z,21.30
2023-04-15T11:38:35.335Z,21.40
2023-04-15T11:41:39.291Z,21.44
2023-04-15T11:44:42.966Z,21.59
2023-04-15T11:47:46.527Z,21.74
2023-04-15T11:51:04.482Z,21.96
2023-04-15T11:54:08.174Z,22.12
2023-04-15T11:57:11.096Z,22.16
2023-04-15T12:00:15.093Z,22.38
2023-04-15T12:03:21.043Z,22.34
2023-04-15T12:06:26.427Z,22.54
2023-04-15T12:09:30.927Z,22.59
2023-04-15T12:12:36.469Z,22.94
2023-04-15T12:15:40.213Z,23.05
2023-04-15T12:18:52.904Z,23.16
2023-04-15T12:22:05.923Z,23.43
2023-04-15T12:25:09.748Z,23.63
2023-04-15T12:28:13.563Z,23.73
2023-04-15T12:31:17.948Z,23.94
2023-04-15T12:34:35.426Z,24.10
2023-04-15T12:37:39.946Z,24.24
2023-04-15T12:40:43.624Z,24.49
2023-04-15T12:43:48.107Z,24.66
2023-04-15T12:46:54.423Z,24.70
2023-04-15T12:49:57.487Z,24.78
2023-04-15T12:53:00.408Z,24.69
2023-04-15T12:56:04.034Z,24.85
2023-04-15T12:59:07.098Z,25.00
2023-04-15T13:02:11.413Z,24.88
2023-04-15T13:05:16.318Z,24.97
2023-04-15T13:08:21.944Z,25.00
2023-04-15T13:11:26.063Z,25.17
2023-04-15T13:14:29.640Z,25.13
2023-04-15T13:17:32.601Z,25.21
2023-04-15T13:20:37.005Z,25.10
2023-04-15T13:23:42.443Z,25.25
2023-04-15T13:26:46.403Z,25.20
2023-04-15T13:29:50.877Z,25.32
2023-04-15T13:32:55.009Z,25.22
2023-04-15T13:35:58.739Z,25.37
2023-04-15T13:39:02.501Z,25.44
2023-04-15T13:42:06.232Z,25.52
2023-04-15T13:45:10.370Z,25.42
2023-04-15T13:48:14.229Z,25.52
2023-04-15T13:51:17.331Z,25.61
2023-04-15T13:54:20.719Z,25.43
2023-04-15T13:57:24.929Z,25.52
2023-04-15T14:00:28.058Z,25.54
2023-04-15T14:03:32.305Z,25.53
2023-04-15T14:06:36.182Z,25.41
2023-04-15T14:09:43.250Z,25.48
2023-04-15T14:12:47.208Z,25.31
2023-04-15T14:15:51.433Z,25.32
2023-04-15T14:18:54.907Z,25.14
2023-04-15T14:21:59.114Z,25.01
2023-04-15T14:25:02.531Z,25.05
2023-04-15T14:28:06.860Z,24.93
2023-04-15T14:31:10.085Z,24.87
2023-04-15T14:34:15.187Z,24.82
2023-04-15T14:37:20.036Z,24.67
2023-04-15T14:40:24.458Z,24.50
2023-04-15T14:43:28.850Z,24.49
2023-04-15T14:46:32.587Z,24.64
2023-04-15T14:49:36.114Z,24.34
2023-04-15T14:52:41.157Z,24.29
2023-04-15T14:55:47.296Z,24.20
2023-04-15T14:58:54.082Z,23.98
2023-04-15T15:01:58.249Z,23.94
2023-04-15T15:05:03.400Z,23.91
2023-04-15T15:08:09.878Z,23.99
2023-04-15T15:11:14.708Z,24.18
2023-04-15T15:14:19.223Z,23.83
2023-04-15T15:17:24.005Z,23.90
2023-04-15T15:20:28.910Z,24.20
2023-04-15T15:23:33.245Z,24.25
2023-04-15T15:26:37.020Z,23.72
2023-04-15T15:29:41.785Z,23.72
2023-04-15T15:32:46.423Z,23.95
2023-04-15T15:35:50.194Z,23.95
2023-04-15T15:38:55.517Z,23.92
2023-04-15T15:41:59.749Z,24.42
2023-04-15T15:45:05.721Z,24.15
2023-04-15T15:48:10.325Z,24.33
2023-04-15T15:51:17.347Z,24.83
2023-04-15T15:54:21.377Z,24.74
2023-04-15T15:57:24.370Z,24.74
2023-04-15T16:00:28.121Z,24.82
2023-04-15T16:03:31.305Z,24.81
2023-04-15T16:06:35.371Z,25.02
2023-04-15T16:09:41.570Z,25.03
2023-04-15T16:12:45.508Z,25.18
2023-04-15T16:15:50.929Z,25.15
2023-04-15T16:18:54.544Z,25.23
2023-04-15T16:21:58.253Z,25.14
2023-04-15T16:25:01.996Z,25.25
2023-04-15T16:28:14.821Z,25.37
2023-04-15T16:31:26.093Z,25.55
2023-04-15T16:34:30.203Z,25.58
2023-04-15T16:37:35.064Z,25.47
2023-04-15T16:40:38.960Z,25.43
2023-04-15T16:43:43.148Z,25.36
2023-04-15T16:46:46.271Z,25.51
2023-04-15T16:49:49.316Z,25.71
2023-04-15T16:52:53.603Z,25.63
2023-04-15T16:55:57.088Z,25.73
2023-04-15T16:59:00.270Z,25.67
2023-04-15T17:02:04.578Z,25.62
2023-04-15T17:05:09.244Z,25.82
2023-04-15T17:08:12.610Z,25.78
2023-04-15T17:11:16.191Z,25.80
2023-04-15T17:14:19.583Z,25.75
2023-04-15T17:17:23.712Z,25.81
2023-04-15T17:20:27.232Z,25.90
2023-04-15T17:23:30.566Z,25.99
2023-04-15T17:26:34.885Z,25.90
2023-04-15T17:29:37.971Z,26.12
2023-04-15T17:32:42.171Z,26.06
2023-04-15T17:35:45.637Z,26.28
2023-04-15T17:38:50.097Z,26.00
2023-04-15T17:41:53.230Z,26.21
2023-04-15T17:44:56.949Z,26.03
2023-04-15T17:48:04.033Z,25.95
2023-04-15T17:51:08.376Z,26.43
2023-04-15T17:54:11.605Z,26.21
2023-04-15T17:57:14.938Z,26.22
2023-04-15T18:00:18.781Z,26.44
2023-04-15T18:03:22.905Z,26.41
2023-04-15T18:06:27.801Z,26.42
2023-04-15T18:09:31.139Z,26.37
2023-04-15T18:12:34.965Z,26.37
2023-04-15T18:15:39.118Z,26.50
2023-04-15T18:18:42.663Z,26.56
2023-04-15T18:21:46.825Z,26.58
2023-04-15T18:24:52.615Z,26.71
2023-04-15T18:27:56.996Z,26.71
2023-04-15T18:31:00.345Z,26.81
2023-04-15T18:34:08.114Z,26.86
2023-04-15T18:37:11.678Z,27.12
2023-04-15T18:40:17.144Z,27.11
2023-04-15T18:43:20.555Z,27.26
2023-04-15T18:46:24.721Z,27.36
2023-04-15T18:49:28.006Z,27.34
2023-04-15T18:52:32.096Z,27.35
2023-04-15T18:55:36.424Z,27.43
2023-04-15T18:59:26.917Z,27.65
2023-04-15T19:02:04.173Z,27.65
2023-04-15T19:05:08.494Z,27.77
2023-04-15T19:08:11.789Z,27.90
2023-04-15T19:11:16.053Z,27.80
2023-04-15T19:14:19.125Z,27.91
2023-04-15T19:17:22.151Z,27.85
2023-04-15T19:20:25.217Z,28.01
2023-04-15T19:23:28.773Z,28.01
2023-04-15T19:26:32.086Z,28.09
2023-04-15T19:29:35.944Z,28.19
2023-04-15T19:32:39.817Z,28.22
2023-04-15T19:35:43.762Z,28.35
2023-04-15T19:38:46.808Z,28.28
2023-04-15T19:41:51.794Z,28.57
2023-04-15T19:44:56.492Z,28.45
2023-04-15T19:48:00.591Z,28.79
2023-04-15T19:51:03.948Z,28.97
2023-04-15T19:54:08.045Z,28.85
2023-04-15T19:57:11.370Z,28.90
2023-04-15T20:00:15.319Z,29.12
2023-04-15T20:03:19.494Z,29.04
2023-04-15T20:06:23.782Z,28.97
2023-04-15T20:09:27.162Z,29.18
2023-04-15T20:12:50.533Z,29.10
2023-04-15T20:15:54.599Z,29.41
2023-04-15T20:19:04.933Z,29.22
2023-04-15T20:22:08.766Z,29.35
2023-04-15T20:25:12.834Z,29.20
2023-04-15T20:28:18.594Z,29.28
2023-04-15T20:31:23.507Z,29.17
2023-04-15T20:34:27.329Z,29.23
2023-04-15T20:37:34.201Z,29.19
2023-04-15T20:40:39.432Z,29.20
2023-04-15T20:43:44.493Z,29.51
2023-04-15T20:46:48.305Z,29.48
2023-04-15T20:49:52.117Z,29.50
2023-04-15T20:52:55.727Z,29.40
2023-04-15T20:56:01.153Z,29.56
2023-04-15T20:59:05.322Z,29.66
2023-04-15T21:02:09.941Z,29.52
2023-04-15T21:05:13.425Z,29.60
2023-04-15T21:08:17.770Z,29.59
2023-04-15T21:11:40.613Z,29.53
2023-04-15T21:14:45.966Z,29.47
2023-04-15T21:17:49.367Z,29.47
2023-04-15T21:21:03.497Z,29.37
2023-04-15T21:24:08.312Z,29.35
2023-04-15T21:27:12.587Z,29.49
2023-04-15T21:30:16.321Z,29.38
2023-04-15T21:33:21.331Z,29.36
2023-04-15T21:36:25.262Z,29.26
2023-04-15T21:39:29.727Z,29.24
2023-04-15T21:42:33.027Z,29.04
2023-04-15T21:45:39.944Z,29.01
2023-04-15T21:48:43.452Z,28.86
2023-04-15T21:51:48.480Z,28.84
2023-04-15T21:54:52.261Z,28.69
2023-04-15T21:57:55.665Z,28.64
2023-04-15T22:01:00.819Z,28.63
2023-04-15T22:04:05.164Z,28.86
2023-04-15T22:07:08.528Z,28.69
2023-04-15T22:10:12.659Z,28.66
2023-04-15T22:13:16.446Z,28.45
2023-04-15T22:16:20.565Z,28.36
2023-04-15T22:19:24.044Z,28.38
2023-04-15T22:22:44.304Z,28.22
2023-04-15T22:25:48.809Z,28.08
2023-04-15T22:28:52.618Z,28.02
2023-04-15T22:31:56.482Z,27.98
2023-04-15T22:35:00.206Z,28.08
2023-04-15T22:38:04.574Z,27.74
2023-04-15T22:41:08.939Z,27.94
2023-04-15T22:44:12.485Z,27.76
2023-04-15T22:47:16.756Z,27.44
2023-04-15T22:50:20.285Z,27.43
2023-04-15T22:53:24.098Z,27.43
2023-04-15T22:56:27.913Z,27.50
2023-04-15T22:59:32.053Z,27.33
2023-04-15T23:02:36.195Z,27.39
2023-04-15T23:05:41.652Z,27.41
2023-04-15T23:08:48.650Z,27.26
2023-04-15T23:11:52.947Z,27.38
2023-04-15T23:14:56.660Z,27.20
2023-04-15T23:18:01.366Z,27.04
2023-04-15T23:21:05.325Z,26.98
2023-04-15T23:24:08.989Z,26.97
2023-04-15T23:27:12.580Z,26.73
2023-04-15T23:30:16.258Z,26.81
2023-04-15T23:33:19.920Z,26.78
2023-04-15T23:36:23.851Z,26.74
2023-04-15T23:39:27.227Z,26.55
2023-04-15T23:42:31.601Z,26.55
2023-04-15T23:45:34.896Z,26.39
2023-04-15T23:48:39.382Z,26.55
2023-04-15T23:51:42.983Z,26.67
2023-04-15T23:54:46.998Z,26.77
2023-04-15T23:57:50.381Z,26.51
